QTR61K EKCH-OTHH
Flight info
| Callsign | QTR61K |
|---|---|
| Flight time | N/A |
| Altitude | 37000 |
| Route | SALLO M44 KOGIM M725 MASOR DCT BODLA DCT DISEK DCT REGLI DCT LITKU DCT BUDOP DCT NAVOD DCT GASRU DCT ETOPO DCT ADORU UG80 EKI UN739 TUMER UT38 VESAR DCT NIKAS R785 RASLI P559 TRF R23 NEVOL N318 TAMRO T503 KSA N687 KINIB Z511 GISRA L681 ORLEK |
| Aircraft | A359/H-SDE2E3GHIJ1J3J4J5LM1ORWXY/LB1D1 |
Departure
| Time | 2026-05-04 19:51 |
|---|---|
| Airport | Copenhagen Kastrup Airport (EKCH) |
Arrival
| Time | N/A |
|---|---|
| Airport | Hamad International Airport (OTHH) |
| Time | Latitude | Longitude | Altitude | Speed | Heading |
|---|---|---|---|---|---|
| 2026-05-04 19:08 | 55.62505 | 12.65074 | 23 ft | 0 kts | 268° |
| 2026-05-04 19:36 | 55.62505 | 12.65100 | 25 ft | 4 kts | 268° |
| 2026-05-04 19:36 | 55.62506 | 12.65141 | 27 ft | 4 kts | 258° |
| 2026-05-04 19:36 | 55.62513 | 12.65173 | 27 ft | 4 kts | 216° |
| 2026-05-04 19:36 | 55.62534 | 12.65191 | 27 ft | 4 kts | 191° |
| 2026-05-04 19:37 | 55.62560 | 12.65196 | 27 ft | 3 kts | 179° |
| 2026-05-04 19:37 | 55.62567 | 12.65196 | 27 ft | 0 kts | 179° |
| 2026-05-04 19:41 | 55.62533 | 12.65198 | 23 ft | 8 kts | 179° |
| 2026-05-04 19:41 | 55.62471 | 12.65200 | 23 ft | 10 kts | 179° |
| 2026-05-04 19:42 | 55.62390 | 12.65204 | 28 ft | 13 kts | 179° |
| 2026-05-04 19:42 | 55.62332 | 12.65205 | 24 ft | 13 kts | 182° |
| 2026-05-04 19:42 | 55.62274 | 12.65137 | 28 ft | 8 kts | 243° |
| 2026-05-04 19:42 | 55.62277 | 12.65074 | 26 ft | 5 kts | 287° |
| 2026-05-04 19:43 | 55.62297 | 12.65012 | 28 ft | 8 kts | 302° |
| 2026-05-04 19:43 | 55.62335 | 12.64910 | 26 ft | 12 kts | 305° |
| 2026-05-04 19:43 | 55.62343 | 12.64793 | 28 ft | 10 kts | 251° |
| 2026-05-04 19:43 | 55.62313 | 12.64664 | 27 ft | 12 kts | 245° |
| 2026-05-04 19:44 | 55.62302 | 12.64618 | 26 ft | 0 kts | 245° |
| 2026-05-04 19:45 | 55.62299 | 12.64606 | 27 ft | 7 kts | 245° |
| 2026-05-04 19:45 | 55.62262 | 12.64462 | 24 ft | 12 kts | 245° |
| 2026-05-04 19:45 | 55.62203 | 12.64353 | 21 ft | 13 kts | 211° |
| 2026-05-04 19:45 | 55.62126 | 12.64285 | 23 ft | 13 kts | 206° |
| 2026-05-04 19:46 | 55.62040 | 12.64211 | 27 ft | 15 kts | 206° |
| 2026-05-04 19:46 | 55.61941 | 12.64129 | 23 ft | 16 kts | 206° |
| 2026-05-04 19:46 | 55.61833 | 12.64071 | 25 ft | 16 kts | 182° |
| 2026-05-04 19:46 | 55.61772 | 12.64077 | 25 ft | 0 kts | 176° |
| 2026-05-04 19:49 | 55.61760 | 12.64079 | 24 ft | 5 kts | 176° |
| 2026-05-04 19:50 | 55.61698 | 12.64086 | 28 ft | 12 kts | 176° |
| 2026-05-04 19:50 | 55.61618 | 12.64057 | 27 ft | 11 kts | 211° |
| 2026-05-04 19:50 | 55.61553 | 12.63962 | 31 ft | 14 kts | 221° |
| 2026-05-04 19:50 | 55.61475 | 12.63842 | 31 ft | 16 kts | 221° |
| 2026-05-04 19:51 | 55.61371 | 12.63682 | 29 ft | 35 kts | 221° |
| 2026-05-04 19:51 | 55.61006 | 12.63115 | 32 ft | 104 kts | 221° |
| 2026-05-04 19:51 | 55.60306 | 12.62050 | 32 ft | 160 kts | 221° |
| 2026-05-04 19:51 | 55.59463 | 12.60811 | 769 ft | 153 kts | 223° |
| 2026-05-04 19:52 | 55.58656 | 12.59566 | 1437 ft | 163 kts | 225° |
| 2026-05-04 19:52 | 55.57739 | 12.58103 | 1765 ft | 190 kts | 225° |
| 2026-05-04 19:52 | 55.56626 | 12.56625 | 1935 ft | 212 kts | 211° |
| 2026-05-04 19:52 | 55.55206 | 12.55564 | 2197 ft | 232 kts | 202° |
| 2026-05-04 19:53 | 55.53611 | 12.54568 | 2484 ft | 251 kts | 202° |
| 2026-05-04 19:53 | 55.51943 | 12.53534 | 3037 ft | 256 kts | 202° |
| 2026-05-04 19:53 | 55.50259 | 12.52478 | 3729 ft | 257 kts | 202° |
| 2026-05-04 19:53 | 55.48576 | 12.51414 | 4410 ft | 258 kts | 202° |
| 2026-05-04 19:54 | 55.46908 | 12.50363 | 5054 ft | 259 kts | 202° |
| 2026-05-04 19:54 | 55.45104 | 12.49751 | 5637 ft | 266 kts | 183° |
| 2026-05-04 19:54 | 55.43309 | 12.50519 | 6211 ft | 277 kts | 155° |
| 2026-05-04 19:54 | 55.41842 | 12.52839 | 6738 ft | 288 kts | 125° |
| 2026-05-04 19:55 | 55.41154 | 12.56118 | 7264 ft | 293 kts | 101° |
| 2026-05-04 19:55 | 55.40707 | 12.59638 | 7782 ft | 297 kts | 105° |
| 2026-05-04 19:55 | 55.40160 | 12.63157 | 8437 ft | 300 kts | 107° |
| 2026-05-04 19:55 | 55.39576 | 12.66702 | 9211 ft | 303 kts | 108° |
| 2026-05-04 19:56 | 55.38974 | 12.70285 | 9947 ft | 307 kts | 108° |
| 2026-05-04 19:56 | 55.38361 | 12.73915 | 10397 ft | 321 kts | 108° |
| 2026-05-04 19:56 | 55.37698 | 12.77783 | 10672 ft | 340 kts | 108° |
| 2026-05-04 19:56 | 55.36993 | 12.81869 | 10959 ft | 359 kts | 108° |
| 2026-05-04 19:57 | 55.36152 | 12.85826 | 11210 ft | 373 kts | 118° |
| 2026-05-04 19:57 | 55.34739 | 12.89343 | 11641 ft | 376 kts | 138° |
| 2026-05-04 19:57 | 55.32694 | 12.92188 | 12261 ft | 377 kts | 149° |
| 2026-05-04 19:57 | 55.30497 | 12.94761 | 12883 ft | 381 kts | 150° |
| 2026-05-04 19:58 | 55.28262 | 12.97316 | 13524 ft | 385 kts | 151° |
| 2026-05-04 19:58 | 55.26007 | 12.99885 | 14116 ft | 389 kts | 151° |
| 2026-05-04 19:58 | 55.23726 | 13.02480 | 14678 ft | 393 kts | 151° |
| 2026-05-04 19:58 | 55.21424 | 13.05096 | 15253 ft | 396 kts | 151° |
| 2026-05-04 19:59 | 55.19106 | 13.07728 | 15830 ft | 399 kts | 151° |
| 2026-05-04 19:59 | 55.16766 | 13.10380 | 16388 ft | 402 kts | 151° |
| 2026-05-04 19:59 | 55.14410 | 13.13048 | 16994 ft | 405 kts | 151° |
| 2026-05-04 19:59 | 55.12040 | 13.15727 | 17552 ft | 408 kts | 151° |
| 2026-05-04 20:00 | 55.09647 | 13.18428 | 18133 ft | 411 kts | 151° |
| 2026-05-04 20:00 | 55.07235 | 13.21146 | 18641 ft | 414 kts | 151° |
| 2026-05-04 20:00 | 55.04801 | 13.23886 | 19148 ft | 418 kts | 151° |
| 2026-05-04 20:00 | 55.02350 | 13.26641 | 19654 ft | 422 kts | 152° |
| 2026-05-04 20:01 | 54.99874 | 13.29419 | 20170 ft | 425 kts | 152° |
| 2026-05-04 20:01 | 54.97376 | 13.32218 | 20677 ft | 429 kts | 152° |
| 2026-05-04 20:01 | 54.94851 | 13.35040 | 21179 ft | 433 kts | 152° |
| 2026-05-04 20:01 | 54.92228 | 13.37591 | 21680 ft | 431 kts | 161° |
| 2026-05-04 20:02 | 54.89404 | 13.39233 | 22192 ft | 427 kts | 172° |
| 2026-05-04 20:02 | 54.86495 | 13.40297 | 22728 ft | 428 kts | 176° |
| 2026-05-04 20:02 | 54.83552 | 13.41121 | 23265 ft | 430 kts | 178° |
| 2026-05-04 20:02 | 54.80576 | 13.41845 | 23773 ft | 433 kts | 179° |
| 2026-05-04 20:03 | 54.77585 | 13.42550 | 24265 ft | 436 kts | 179° |
| 2026-05-04 20:03 | 54.74566 | 13.43279 | 24726 ft | 438 kts | 179° |
| 2026-05-04 20:03 | 54.71549 | 13.44036 | 24934 ft | 439 kts | 179° |
| 2026-05-04 20:03 | 54.68531 | 13.44822 | 25003 ft | 441 kts | 178° |
| 2026-05-04 20:04 | 54.65478 | 13.45633 | 25323 ft | 444 kts | 178° |
| 2026-05-04 20:04 | 54.62423 | 13.46449 | 25859 ft | 446 kts | 178° |
| 2026-05-04 20:04 | 54.59352 | 13.47270 | 26375 ft | 447 kts | 178° |
| 2026-05-04 20:04 | 54.56264 | 13.48094 | 26862 ft | 450 kts | 178° |
| 2026-05-04 20:05 | 54.53161 | 13.48920 | 27337 ft | 453 kts | 178° |
| 2026-05-04 20:05 | 54.50039 | 13.49750 | 27807 ft | 455 kts | 178° |
| 2026-05-04 20:05 | 54.46895 | 13.50575 | 28305 ft | 458 kts | 179° |
| 2026-05-04 20:05 | 54.43735 | 13.51376 | 28747 ft | 460 kts | 179° |
| 2026-05-04 20:06 | 54.40557 | 13.52170 | 29198 ft | 463 kts | 179° |
| 2026-05-04 20:06 | 54.37360 | 13.52965 | 29634 ft | 466 kts | 179° |
| 2026-05-04 20:06 | 54.34191 | 13.53754 | 30062 ft | 468 kts | 179° |
| 2026-05-04 20:06 | 54.30963 | 13.54561 | 30399 ft | 470 kts | 179° |
| 2026-05-04 20:07 | 54.27714 | 13.55399 | 30712 ft | 473 kts | 178° |
| 2026-05-04 20:07 | 54.24450 | 13.56256 | 31019 ft | 476 kts | 178° |
| 2026-05-04 20:07 | 54.21169 | 13.57122 | 31305 ft | 478 kts | 178° |
| 2026-05-04 20:07 | 54.17834 | 13.58003 | 31607 ft | 481 kts | 178° |
| 2026-05-04 20:08 | 54.14513 | 13.58875 | 31876 ft | 483 kts | 178° |
| 2026-05-04 20:08 | 54.11184 | 13.59741 | 32137 ft | 485 kts | 178° |
| 2026-05-04 20:08 | 54.07842 | 13.60606 | 32430 ft | 486 kts | 178° |
| 2026-05-04 20:08 | 54.04498 | 13.61470 | 32798 ft | 486 kts | 178° |
| 2026-05-04 20:09 | 54.01196 | 13.62322 | 33135 ft | 486 kts | 177° |
| 2026-05-04 20:09 | 53.97854 | 13.63202 | 33470 ft | 488 kts | 176° |
| 2026-05-04 20:09 | 53.94526 | 13.64527 | 33788 ft | 495 kts | 169° |
| 2026-05-04 20:09 | 53.91295 | 13.66612 | 34093 ft | 502 kts | 160° |
| 2026-05-04 20:10 | 53.88228 | 13.69534 | 34400 ft | 507 kts | 152° |
| 2026-05-04 20:10 | 53.85255 | 13.72899 | 34780 ft | 507 kts | 150° |
| 2026-05-04 20:10 | 53.82417 | 13.76289 | 35115 ft | 506 kts | 149° |
| 2026-05-04 20:10 | 53.79523 | 13.79817 | 35439 ft | 505 kts | 149° |
| 2026-05-04 20:11 | 53.76713 | 13.83246 | 35745 ft | 505 kts | 149° |
| 2026-05-04 20:11 | 53.73864 | 13.86699 | 36066 ft | 504 kts | 149° |
| 2026-05-04 20:11 | 53.71009 | 13.90128 | 36369 ft | 502 kts | 149° |
| 2026-05-04 20:11 | 53.68160 | 13.93523 | 36664 ft | 502 kts | 149° |
| 2026-05-04 20:12 | 53.65305 | 13.96907 | 36972 ft | 501 kts | 149° |
| 2026-05-04 20:12 | 53.62458 | 14.00269 | 37253 ft | 500 kts | 149° |
| 2026-05-04 20:12 | 53.59608 | 14.03626 | 37531 ft | 499 kts | 149° |
| 2026-05-04 20:12 | 53.56763 | 14.06973 | 37792 ft | 498 kts | 149° |
| 2026-05-04 20:13 | 53.53923 | 14.10307 | 37960 ft | 499 kts | 149° |
| 2026-05-04 20:13 | 53.48235 | 14.16973 | 37976 ft | 498 kts | 149° |
| 2026-05-04 20:14 | 53.42546 | 14.23620 | 37971 ft | 498 kts | 149° |
| 2026-05-04 20:14 | 53.36859 | 14.30242 | 37969 ft | 498 kts | 150° |
| 2026-05-04 20:15 | 53.31158 | 14.36859 | 37968 ft | 498 kts | 150° |
| 2026-05-04 20:15 | 53.26433 | 14.42337 | 37965 ft | 498 kts | 149° |
| 2026-05-04 20:16 | 53.19996 | 14.50634 | 37967 ft | 501 kts | 145° |
| 2026-05-04 20:16 | 53.15493 | 14.56713 | 37963 ft | 501 kts | 145° |
| 2026-05-04 20:17 | 53.09162 | 14.65115 | 37961 ft | 500 kts | 146° |
| 2026-05-04 20:17 | 53.03685 | 14.72253 | 37960 ft | 500 kts | 146° |
| 2026-05-04 20:18 | 52.99090 | 14.78201 | 37957 ft | 500 kts | 146° |
| 2026-05-04 20:18 | 52.93596 | 14.85291 | 37956 ft | 500 kts | 146° |
| 2026-05-04 20:19 | 52.88039 | 14.92209 | 37954 ft | 498 kts | 149° |
| 2026-05-04 20:19 | 52.82346 | 14.98721 | 37954 ft | 497 kts | 150° |
| 2026-05-04 20:20 | 52.76652 | 15.05191 | 37950 ft | 497 kts | 149° |
| 2026-05-04 20:20 | 52.70970 | 15.11716 | 37953 ft | 497 kts | 149° |
| 2026-05-04 20:21 | 52.65306 | 15.18246 | 37951 ft | 497 kts | 149° |
| 2026-05-04 20:21 | 52.56818 | 15.28003 | 37951 ft | 496 kts | 149° |
| 2026-05-04 20:22 | 52.51151 | 15.34486 | 37953 ft | 496 kts | 149° |
| 2026-05-04 20:22 | 52.45484 | 15.40948 | 37954 ft | 496 kts | 149° |
| 2026-05-04 20:23 | 52.39846 | 15.47354 | 37956 ft | 497 kts | 149° |
| 2026-05-04 20:23 | 52.34163 | 15.53792 | 37950 ft | 497 kts | 149° |
| 2026-05-04 20:24 | 52.28471 | 15.60219 | 37951 ft | 498 kts | 149° |
| 2026-05-04 20:24 | 52.22768 | 15.66637 | 37970 ft | 498 kts | 149° |
| 2026-05-04 20:25 | 52.17056 | 15.73047 | 37960 ft | 499 kts | 149° |
| 2026-05-04 20:25 | 52.11335 | 15.79445 | 37961 ft | 499 kts | 149° |
| 2026-05-04 20:26 | 52.05614 | 15.85824 | 37962 ft | 499 kts | 149° |
| 2026-05-04 20:26 | 51.99878 | 15.92200 | 37961 ft | 499 kts | 149° |
| 2026-05-04 20:27 | 51.94154 | 15.98543 | 37951 ft | 499 kts | 149° |
| 2026-05-04 20:27 | 51.88424 | 16.04872 | 37947 ft | 498 kts | 149° |
| 2026-05-04 20:28 | 51.82695 | 16.11181 | 37935 ft | 497 kts | 149° |
| 2026-05-04 20:28 | 51.76972 | 16.17462 | 37938 ft | 497 kts | 149° |
| 2026-05-04 20:29 | 51.71254 | 16.23718 | 37934 ft | 497 kts | 149° |
| 2026-05-04 20:29 | 51.65533 | 16.29958 | 37939 ft | 496 kts | 149° |
| 2026-05-04 20:30 | 51.59814 | 16.36177 | 37937 ft | 496 kts | 149° |
| 2026-05-04 20:30 | 51.54093 | 16.42379 | 37938 ft | 496 kts | 149° |
| 2026-05-04 20:31 | 51.48362 | 16.48572 | 37932 ft | 496 kts | 149° |
| 2026-05-04 20:31 | 51.42641 | 16.54736 | 37933 ft | 496 kts | 149° |
| 2026-05-04 20:32 | 51.36910 | 16.60891 | 37929 ft | 496 kts | 149° |
| 2026-05-04 20:32 | 51.31176 | 16.67032 | 37931 ft | 496 kts | 149° |
| 2026-05-04 20:33 | 51.25442 | 16.73153 | 37935 ft | 495 kts | 149° |
| 2026-05-04 20:33 | 51.19707 | 16.79256 | 37938 ft | 495 kts | 149° |
| 2026-05-04 20:34 | 51.13975 | 16.85337 | 37940 ft | 495 kts | 149° |
| 2026-05-04 20:34 | 51.08237 | 16.91406 | 37932 ft | 495 kts | 149° |
| 2026-05-04 20:35 | 51.02534 | 16.97421 | 37932 ft | 495 kts | 149° |
| 2026-05-04 20:35 | 50.96797 | 17.03454 | 37940 ft | 495 kts | 149° |
| 2026-05-04 20:36 | 50.91054 | 17.09474 | 37936 ft | 495 kts | 149° |
| 2026-05-04 20:36 | 50.85311 | 17.15477 | 37937 ft | 494 kts | 149° |
| 2026-05-04 20:37 | 50.79533 | 17.21497 | 37941 ft | 494 kts | 149° |
| 2026-05-04 20:37 | 50.73790 | 17.27463 | 37942 ft | 494 kts | 149° |
| 2026-05-04 20:38 | 50.68090 | 17.33367 | 37942 ft | 494 kts | 149° |
| 2026-05-04 20:38 | 50.62351 | 17.39294 | 37946 ft | 493 kts | 149° |
| 2026-05-04 20:39 | 50.56608 | 17.45208 | 37948 ft | 493 kts | 149° |
| 2026-05-04 20:39 | 50.50868 | 17.51101 | 37953 ft | 493 kts | 149° |
| 2026-05-04 20:40 | 50.45129 | 17.56975 | 37959 ft | 492 kts | 149° |
| 2026-05-04 20:40 | 50.39389 | 17.62834 | 37956 ft | 492 kts | 149° |
| 2026-05-04 20:41 | 50.33651 | 17.68674 | 37962 ft | 492 kts | 149° |
| 2026-05-04 20:41 | 50.27914 | 17.74494 | 37963 ft | 491 kts | 149° |
| 2026-05-04 20:42 | 50.22175 | 17.80301 | 37968 ft | 491 kts | 149° |
| 2026-05-04 20:42 | 50.16431 | 17.86095 | 37968 ft | 492 kts | 149° |
| 2026-05-04 20:43 | 50.10683 | 17.91877 | 37975 ft | 492 kts | 149° |
| 2026-05-04 20:43 | 50.04929 | 17.97648 | 37970 ft | 492 kts | 149° |
| 2026-05-04 20:44 | 49.99138 | 18.03335 | 37979 ft | 492 kts | 150° |
| 2026-05-04 20:44 | 49.93243 | 18.08743 | 37985 ft | 492 kts | 151° |
| 2026-05-04 20:45 | 49.87340 | 18.14106 | 37990 ft | 492 kts | 151° |
| 2026-05-04 20:45 | 49.81443 | 18.19504 | 37995 ft | 492 kts | 151° |
| 2026-05-04 20:46 | 49.75552 | 18.24912 | 37993 ft | 492 kts | 151° |
| 2026-05-04 20:46 | 49.69674 | 18.30301 | 37991 ft | 492 kts | 151° |
| 2026-05-04 20:47 | 49.63772 | 18.35693 | 37994 ft | 492 kts | 151° |
| 2026-05-04 20:47 | 49.57873 | 18.41065 | 37997 ft | 492 kts | 151° |
| 2026-05-04 20:48 | 49.51974 | 18.46422 | 38003 ft | 492 kts | 151° |
| 2026-05-04 20:48 | 49.46073 | 18.51765 | 38015 ft | 492 kts | 151° |
| 2026-05-04 20:49 | 49.40330 | 18.56951 | 38019 ft | 492 kts | 151° |
| 2026-05-04 20:49 | 49.34418 | 18.62274 | 38023 ft | 493 kts | 151° |
| 2026-05-04 20:50 | 49.28508 | 18.67581 | 38019 ft | 493 kts | 151° |
| 2026-05-04 20:50 | 49.22584 | 18.72885 | 38020 ft | 492 kts | 151° |
| 2026-05-04 20:51 | 49.16669 | 18.78168 | 38023 ft | 492 kts | 151° |
| 2026-05-04 20:51 | 49.10795 | 18.83398 | 38029 ft | 492 kts | 151° |
| 2026-05-04 20:52 | 49.04835 | 18.88690 | 38036 ft | 492 kts | 151° |
| 2026-05-04 20:52 | 48.98951 | 18.93901 | 38048 ft | 493 kts | 151° |
| 2026-05-04 20:53 | 48.93018 | 18.99139 | 38056 ft | 492 kts | 151° |
| 2026-05-04 20:53 | 48.87092 | 19.04358 | 38054 ft | 492 kts | 151° |
| 2026-05-04 20:54 | 48.81164 | 19.09563 | 38058 ft | 492 kts | 151° |
| 2026-05-04 20:54 | 48.75228 | 19.14762 | 38063 ft | 492 kts | 151° |
| 2026-05-04 20:55 | 48.69291 | 19.19947 | 38059 ft | 493 kts | 151° |
| 2026-05-04 20:55 | 48.63355 | 19.25118 | 38060 ft | 493 kts | 151° |
| 2026-05-04 20:56 | 48.57410 | 19.30281 | 38059 ft | 492 kts | 151° |
| 2026-05-04 20:56 | 48.51469 | 19.35426 | 38056 ft | 493 kts | 151° |
| 2026-05-04 20:57 | 48.45522 | 19.40564 | 38054 ft | 493 kts | 151° |
| 2026-05-04 20:57 | 48.39575 | 19.45688 | 38051 ft | 493 kts | 151° |
| 2026-05-04 20:58 | 48.33618 | 19.50805 | 38047 ft | 493 kts | 151° |
| 2026-05-04 20:58 | 48.27657 | 19.55913 | 38041 ft | 493 kts | 151° |
| 2026-05-04 20:59 | 48.21884 | 19.61457 | 38050 ft | 494 kts | 141° |
| 2026-05-04 20:59 | 48.16581 | 19.68008 | 38044 ft | 494 kts | 140° |
| 2026-05-04 21:00 | 48.11389 | 19.74663 | 38046 ft | 495 kts | 140° |
| 2026-05-04 21:00 | 48.06125 | 19.81403 | 38049 ft | 495 kts | 140° |
| 2026-05-04 21:01 | 48.00876 | 19.88072 | 38048 ft | 495 kts | 140° |
| 2026-05-04 21:01 | 47.96510 | 19.93588 | 38051 ft | 495 kts | 140° |
| 2026-05-04 21:02 | 47.91250 | 20.00217 | 38052 ft | 495 kts | 140° |
| 2026-05-04 21:02 | 47.85128 | 20.07908 | 38045 ft | 496 kts | 140° |
| 2026-05-04 21:03 | 47.80704 | 20.13452 | 38053 ft | 496 kts | 140° |
| 2026-05-04 21:03 | 47.75425 | 20.20052 | 38047 ft | 496 kts | 140° |
| 2026-05-04 21:04 | 47.70141 | 20.26639 | 38049 ft | 496 kts | 140° |
| 2026-05-04 21:04 | 47.64850 | 20.33217 | 38048 ft | 496 kts | 140° |
| 2026-05-04 21:05 | 47.59591 | 20.39738 | 38045 ft | 496 kts | 140° |
| 2026-05-04 21:05 | 47.54265 | 20.46323 | 38047 ft | 496 kts | 140° |
| 2026-05-04 21:06 | 47.49004 | 20.52811 | 38047 ft | 496 kts | 140° |
| 2026-05-04 21:06 | 47.43702 | 20.59330 | 38048 ft | 495 kts | 140° |
| 2026-05-04 21:07 | 47.38400 | 20.65833 | 38050 ft | 495 kts | 140° |
| 2026-05-04 21:07 | 47.33101 | 20.72315 | 38048 ft | 495 kts | 140° |
| 2026-05-04 21:08 | 47.27795 | 20.78786 | 38052 ft | 495 kts | 140° |
| 2026-05-04 21:08 | 47.22481 | 20.85251 | 38054 ft | 495 kts | 140° |
| 2026-05-04 21:09 | 47.17167 | 20.91699 | 38057 ft | 496 kts | 140° |
| 2026-05-04 21:09 | 47.12056 | 20.97883 | 38058 ft | 496 kts | 140° |
| 2026-05-04 21:10 | 47.06754 | 21.04282 | 38056 ft | 496 kts | 140° |
| 2026-05-04 21:10 | 47.01385 | 21.10745 | 38059 ft | 497 kts | 140° |
| 2026-05-04 21:11 | 46.96070 | 21.17125 | 38064 ft | 497 kts | 140° |
| 2026-05-04 21:11 | 46.90713 | 21.23539 | 38063 ft | 498 kts | 140° |
| 2026-05-04 21:12 | 46.85308 | 21.29994 | 38066 ft | 498 kts | 140° |
| 2026-05-04 21:12 | 46.79967 | 21.36354 | 38069 ft | 499 kts | 140° |
| 2026-05-04 21:13 | 46.74582 | 21.42750 | 38071 ft | 499 kts | 140° |
| 2026-05-04 21:13 | 46.69194 | 21.49133 | 38069 ft | 500 kts | 140° |
| 2026-05-04 21:14 | 46.63736 | 21.55407 | 38073 ft | 500 kts | 142° |
| 2026-05-04 21:14 | 46.58183 | 21.61508 | 38076 ft | 500 kts | 142° |
| 2026-05-04 21:15 | 46.52628 | 21.67603 | 38080 ft | 500 kts | 142° |
| 2026-05-04 21:15 | 46.47085 | 21.73717 | 38083 ft | 501 kts | 142° |
| 2026-05-04 21:16 | 46.41543 | 21.79833 | 38084 ft | 501 kts | 142° |
| 2026-05-04 21:16 | 46.35997 | 21.85940 | 38092 ft | 501 kts | 142° |
| 2026-05-04 21:17 | 46.30448 | 21.92034 | 38086 ft | 501 kts | 142° |
| 2026-05-04 21:17 | 46.24887 | 21.98124 | 38091 ft | 501 kts | 142° |
| 2026-05-04 21:18 | 46.19321 | 22.04202 | 38091 ft | 502 kts | 142° |
| 2026-05-04 21:18 | 46.13750 | 22.10270 | 38097 ft | 502 kts | 142° |
| 2026-05-04 21:19 | 46.08175 | 22.16327 | 38104 ft | 502 kts | 142° |
| 2026-05-04 21:19 | 46.02583 | 22.22386 | 38103 ft | 502 kts | 142° |
| 2026-05-04 21:20 | 45.96999 | 22.28423 | 38103 ft | 503 kts | 142° |
| 2026-05-04 21:20 | 45.91399 | 22.34458 | 38106 ft | 503 kts | 142° |
| 2026-05-04 21:21 | 45.85803 | 22.40476 | 38108 ft | 503 kts | 142° |
| 2026-05-04 21:21 | 45.80204 | 22.46481 | 38112 ft | 503 kts | 142° |
| 2026-05-04 21:22 | 45.74598 | 22.52478 | 38118 ft | 503 kts | 142° |
| 2026-05-04 21:22 | 45.69031 | 22.58418 | 38120 ft | 502 kts | 142° |
| 2026-05-04 21:23 | 45.63427 | 22.64382 | 38125 ft | 502 kts | 142° |
| 2026-05-04 21:23 | 45.57820 | 22.70333 | 38130 ft | 502 kts | 142° |
| 2026-05-04 21:24 | 45.52208 | 22.76276 | 38130 ft | 502 kts | 142° |
| 2026-05-04 21:24 | 45.46594 | 22.82206 | 38122 ft | 502 kts | 142° |
| 2026-05-04 21:25 | 45.40976 | 22.88125 | 38128 ft | 503 kts | 142° |
| 2026-05-04 21:25 | 45.35345 | 22.94041 | 38124 ft | 503 kts | 142° |
| 2026-05-04 21:26 | 45.29708 | 22.99949 | 38117 ft | 504 kts | 142° |
| 2026-05-04 21:26 | 45.24061 | 23.05852 | 38108 ft | 504 kts | 142° |
| 2026-05-04 21:27 | 45.18419 | 23.11735 | 38104 ft | 504 kts | 142° |
| 2026-05-04 21:27 | 45.12770 | 23.17613 | 38099 ft | 503 kts | 143° |
| 2026-05-04 21:28 | 45.07136 | 23.23460 | 38092 ft | 502 kts | 143° |
| 2026-05-04 21:28 | 45.01505 | 23.29288 | 38082 ft | 501 kts | 143° |
| 2026-05-04 21:29 | 44.95884 | 23.35091 | 38081 ft | 500 kts | 143° |
| 2026-05-04 21:29 | 44.90268 | 23.40874 | 38082 ft | 500 kts | 143° |
| 2026-05-04 21:30 | 44.84658 | 23.46638 | 38075 ft | 499 kts | 143° |
| 2026-05-04 21:30 | 44.79034 | 23.52401 | 38078 ft | 500 kts | 143° |
| 2026-05-04 21:31 | 44.70590 | 23.61029 | 38072 ft | 500 kts | 143° |
| 2026-05-04 21:32 | 44.64948 | 23.66776 | 38076 ft | 501 kts | 143° |
| 2026-05-04 21:32 | 44.59300 | 23.72515 | 38068 ft | 502 kts | 143° |
| 2026-05-04 21:33 | 44.53676 | 23.78215 | 38061 ft | 502 kts | 143° |
| 2026-05-04 21:33 | 44.48011 | 23.83943 | 38052 ft | 502 kts | 143° |
| 2026-05-04 21:34 | 44.42342 | 23.89662 | 38050 ft | 502 kts | 143° |
| 2026-05-04 21:34 | 44.36668 | 23.95371 | 38049 ft | 503 kts | 143° |
| 2026-05-04 21:35 | 44.30990 | 24.01071 | 38047 ft | 503 kts | 143° |
| 2026-05-04 21:35 | 44.25308 | 24.06759 | 38051 ft | 502 kts | 143° |
| 2026-05-04 21:36 | 44.19626 | 24.12436 | 38060 ft | 502 kts | 143° |
| 2026-05-04 21:36 | 44.13942 | 24.18099 | 38064 ft | 502 kts | 143° |
| 2026-05-04 21:37 | 44.08260 | 24.23748 | 38072 ft | 502 kts | 143° |
| 2026-05-04 21:37 | 44.02572 | 24.29389 | 38074 ft | 502 kts | 143° |
| 2026-05-04 21:38 | 43.96883 | 24.35017 | 38075 ft | 502 kts | 143° |
| 2026-05-04 21:38 | 43.91197 | 24.40629 | 38073 ft | 502 kts | 143° |
| 2026-05-04 21:39 | 43.85507 | 24.46231 | 38076 ft | 501 kts | 143° |
| 2026-05-04 21:39 | 43.79815 | 24.51821 | 38078 ft | 501 kts | 144° |
| 2026-05-04 21:40 | 43.74133 | 24.57398 | 38085 ft | 501 kts | 143° |
| 2026-05-04 21:40 | 43.68567 | 24.63199 | 38087 ft | 500 kts | 141° |
| 2026-05-04 21:41 | 43.63071 | 24.69084 | 38091 ft | 500 kts | 141° |
| 2026-05-04 21:41 | 43.57549 | 24.74936 | 38092 ft | 500 kts | 141° |
| 2026-05-04 21:42 | 43.52007 | 24.80749 | 38087 ft | 501 kts | 142° |
| 2026-05-04 21:42 | 43.46454 | 24.86544 | 38083 ft | 501 kts | 142° |
| 2026-05-04 21:43 | 43.40900 | 24.92326 | 38092 ft | 501 kts | 142° |
| 2026-05-04 21:43 | 43.35377 | 24.98065 | 38090 ft | 501 kts | 142° |
| 2026-05-04 21:44 | 43.29929 | 25.03713 | 38093 ft | 501 kts | 142° |
| 2026-05-04 21:44 | 43.24360 | 25.09474 | 38096 ft | 501 kts | 142° |
| 2026-05-04 21:45 | 43.18795 | 25.15218 | 38099 ft | 501 kts | 142° |
| 2026-05-04 21:45 | 43.13221 | 25.20957 | 38080 ft | 501 kts | 142° |
| 2026-05-04 21:46 | 43.07651 | 25.26679 | 38080 ft | 501 kts | 142° |
| 2026-05-04 21:46 | 43.02076 | 25.32392 | 38075 ft | 501 kts | 142° |
| 2026-05-04 21:47 | 42.96494 | 25.38099 | 38080 ft | 501 kts | 142° |
| 2026-05-04 21:47 | 42.90910 | 25.43795 | 38084 ft | 501 kts | 142° |
| 2026-05-04 21:48 | 42.85318 | 25.49486 | 38094 ft | 502 kts | 142° |
| 2026-05-04 21:48 | 42.79723 | 25.55166 | 38101 ft | 502 kts | 142° |
| 2026-05-04 21:49 | 42.74116 | 25.60846 | 38095 ft | 503 kts | 142° |
| 2026-05-04 21:49 | 42.69458 | 25.65556 | 38096 ft | 503 kts | 142° |
| 2026-05-04 21:50 | 42.63840 | 25.71222 | 38093 ft | 503 kts | 142° |
| 2026-05-04 21:50 | 42.58226 | 25.76873 | 38091 ft | 502 kts | 142° |
| 2026-05-04 21:51 | 42.52617 | 25.82504 | 38089 ft | 502 kts | 142° |
| 2026-05-04 21:51 | 42.47002 | 25.88130 | 38084 ft | 502 kts | 142° |
| 2026-05-04 21:52 | 42.41383 | 25.93747 | 38082 ft | 502 kts | 142° |
| 2026-05-04 21:52 | 42.35761 | 25.99354 | 38083 ft | 502 kts | 142° |
| 2026-05-04 21:53 | 42.30138 | 26.04948 | 38083 ft | 502 kts | 142° |
| 2026-05-04 21:53 | 42.24593 | 26.10695 | 38091 ft | 501 kts | 137° |
| 2026-05-04 21:54 | 42.19408 | 26.16986 | 38087 ft | 501 kts | 136° |
| 2026-05-04 21:54 | 42.14288 | 26.23366 | 38097 ft | 501 kts | 135° |
| 2026-05-04 21:55 | 42.09174 | 26.29740 | 38096 ft | 501 kts | 135° |
| 2026-05-04 21:55 | 42.04043 | 26.36107 | 38094 ft | 501 kts | 135° |
| 2026-05-04 21:56 | 41.98902 | 26.42440 | 38097 ft | 501 kts | 136° |
| 2026-05-04 21:56 | 41.93753 | 26.48759 | 38095 ft | 501 kts | 136° |
| 2026-05-04 21:57 | 41.88597 | 26.55069 | 38095 ft | 502 kts | 136° |
| 2026-05-04 21:57 | 41.83036 | 26.60776 | 38093 ft | 504 kts | 142° |
| 2026-05-04 21:58 | 41.77317 | 26.66206 | 38095 ft | 504 kts | 143° |
| 2026-05-04 21:58 | 41.71572 | 26.71594 | 38097 ft | 504 kts | 143° |
| 2026-05-04 21:59 | 41.65830 | 26.76982 | 38098 ft | 505 kts | 143° |
| 2026-05-04 21:59 | 41.60087 | 26.82374 | 38095 ft | 505 kts | 143° |
| 2026-05-04 22:00 | 41.54337 | 26.87767 | 38094 ft | 505 kts | 143° |
| 2026-05-04 22:00 | 41.48577 | 26.93157 | 38094 ft | 506 kts | 143° |
| 2026-05-04 22:01 | 41.42854 | 26.98506 | 38095 ft | 506 kts | 143° |
| 2026-05-04 22:01 | 41.37081 | 27.03883 | 38093 ft | 506 kts | 143° |
| 2026-05-04 22:02 | 41.31298 | 27.09251 | 38092 ft | 507 kts | 143° |
| 2026-05-04 22:02 | 41.25513 | 27.14615 | 38092 ft | 508 kts | 143° |
| 2026-05-04 22:03 | 41.19714 | 27.19982 | 38085 ft | 508 kts | 143° |
| 2026-05-04 22:03 | 41.13908 | 27.25347 | 38090 ft | 509 kts | 143° |
| 2026-05-04 22:04 | 41.08081 | 27.30708 | 38086 ft | 510 kts | 143° |
| 2026-05-04 22:04 | 41.02253 | 27.36059 | 38092 ft | 511 kts | 143° |
| 2026-05-04 22:05 | 40.96406 | 27.41420 | 38079 ft | 511 kts | 143° |
| 2026-05-04 22:05 | 40.90570 | 27.46801 | 38081 ft | 512 kts | 143° |
| 2026-05-04 22:06 | 40.84751 | 27.52225 | 38087 ft | 512 kts | 143° |
| 2026-05-04 22:06 | 40.78926 | 27.57644 | 38067 ft | 513 kts | 143° |
| 2026-05-04 22:07 | 40.73084 | 27.63056 | 38077 ft | 513 kts | 143° |
| 2026-05-04 22:07 | 40.67245 | 27.68449 | 38079 ft | 514 kts | 143° |
| 2026-05-04 22:08 | 40.61379 | 27.73854 | 38074 ft | 514 kts | 143° |
| 2026-05-04 22:08 | 40.55512 | 27.79249 | 38080 ft | 515 kts | 143° |
| 2026-05-04 22:09 | 40.49639 | 27.84638 | 38081 ft | 515 kts | 143° |
| 2026-05-04 22:09 | 40.43801 | 27.89983 | 38077 ft | 515 kts | 143° |
| 2026-05-04 22:10 | 40.37925 | 27.95352 | 38080 ft | 515 kts | 143° |
| 2026-05-04 22:10 | 40.32041 | 28.00716 | 38081 ft | 515 kts | 143° |
| 2026-05-04 22:11 | 40.26152 | 28.06072 | 38078 ft | 515 kts | 143° |
| 2026-05-04 22:11 | 40.20256 | 28.11424 | 38081 ft | 516 kts | 143° |
| 2026-05-04 22:12 | 40.14360 | 28.16764 | 38080 ft | 516 kts | 143° |
| 2026-05-04 22:12 | 40.08457 | 28.22099 | 38081 ft | 516 kts | 143° |
| 2026-05-04 22:13 | 40.02543 | 28.27432 | 38081 ft | 516 kts | 143° |
| 2026-05-04 22:13 | 39.96628 | 28.32754 | 38083 ft | 517 kts | 143° |
| 2026-05-04 22:14 | 39.90707 | 28.38071 | 38080 ft | 517 kts | 143° |
| 2026-05-04 22:14 | 39.84777 | 28.43384 | 38082 ft | 517 kts | 143° |
| 2026-05-04 22:15 | 39.78839 | 28.48694 | 38081 ft | 518 kts | 143° |
| 2026-05-04 22:15 | 39.72902 | 28.53991 | 38080 ft | 518 kts | 143° |
| 2026-05-04 22:16 | 39.66958 | 28.59283 | 38082 ft | 518 kts | 144° |
| 2026-05-04 22:16 | 39.61013 | 28.64565 | 38076 ft | 518 kts | 144° |
| 2026-05-04 22:17 | 39.55063 | 28.69841 | 38077 ft | 518 kts | 144° |
| 2026-05-04 22:17 | 39.49153 | 28.75070 | 38076 ft | 518 kts | 144° |
| 2026-05-04 22:18 | 39.43206 | 28.80320 | 38075 ft | 517 kts | 144° |
| 2026-05-04 22:18 | 39.37273 | 28.85545 | 38074 ft | 515 kts | 144° |
| 2026-05-04 22:19 | 39.31353 | 28.90751 | 38075 ft | 514 kts | 144° |
| 2026-05-04 22:19 | 39.25451 | 28.95929 | 38076 ft | 513 kts | 144° |
| 2026-05-04 22:20 | 39.19554 | 29.01092 | 38073 ft | 511 kts | 144° |
| 2026-05-04 22:20 | 39.13672 | 29.06231 | 38074 ft | 510 kts | 144° |
| 2026-05-04 22:21 | 39.07795 | 29.11355 | 38072 ft | 510 kts | 145° |
| 2026-05-04 22:21 | 39.01916 | 29.16471 | 38071 ft | 510 kts | 145° |
| 2026-05-04 22:22 | 38.96031 | 29.21581 | 38070 ft | 510 kts | 145° |
| 2026-05-04 22:22 | 38.90143 | 29.26683 | 38067 ft | 511 kts | 145° |
| 2026-05-04 22:23 | 38.84252 | 29.31778 | 38073 ft | 511 kts | 145° |
| 2026-05-04 22:23 | 38.78355 | 29.36868 | 38068 ft | 511 kts | 145° |
| 2026-05-04 22:24 | 38.72458 | 29.41947 | 38077 ft | 511 kts | 146° |
| 2026-05-04 22:24 | 38.66798 | 29.47423 | 38065 ft | 510 kts | 134° |
| 2026-05-04 22:25 | 38.62290 | 29.54384 | 38062 ft | 509 kts | 126° |
| 2026-05-04 22:25 | 38.58131 | 29.61711 | 38063 ft | 509 kts | 124° |
| 2026-05-04 22:26 | 38.54007 | 29.69075 | 38057 ft | 510 kts | 124° |
| 2026-05-04 22:26 | 38.49855 | 29.76408 | 38060 ft | 510 kts | 125° |
| 2026-05-04 22:27 | 38.45672 | 29.83734 | 38053 ft | 511 kts | 125° |
| 2026-05-04 22:27 | 38.41480 | 29.91047 | 38056 ft | 511 kts | 125° |
| 2026-05-04 22:28 | 38.37275 | 29.98369 | 38051 ft | 512 kts | 126° |
| 2026-05-04 22:28 | 38.33089 | 30.05645 | 38041 ft | 512 kts | 126° |
| 2026-05-04 22:29 | 38.28845 | 30.13006 | 38043 ft | 513 kts | 126° |
| 2026-05-04 22:29 | 38.24648 | 30.20289 | 38039 ft | 514 kts | 126° |
| 2026-05-04 22:30 | 38.20420 | 30.27608 | 38035 ft | 514 kts | 126° |
| 2026-05-04 22:30 | 38.16170 | 30.34927 | 38030 ft | 514 kts | 126° |
| 2026-05-04 22:31 | 38.11918 | 30.42234 | 38025 ft | 515 kts | 126° |
| 2026-05-04 22:31 | 38.07659 | 30.49545 | 38022 ft | 515 kts | 126° |
| 2026-05-04 22:32 | 38.03392 | 30.56856 | 38014 ft | 516 kts | 127° |
| 2026-05-04 22:32 | 37.99116 | 30.64163 | 38012 ft | 516 kts | 127° |
| 2026-05-04 22:33 | 37.94838 | 30.71478 | 38006 ft | 517 kts | 127° |
| 2026-05-04 22:33 | 37.90557 | 30.78788 | 37996 ft | 517 kts | 127° |
| 2026-05-04 22:34 | 37.86268 | 30.86095 | 37992 ft | 517 kts | 127° |
| 2026-05-04 22:34 | 37.81977 | 30.93388 | 37988 ft | 517 kts | 127° |
| 2026-05-04 22:35 | 37.77687 | 31.00663 | 37977 ft | 516 kts | 128° |
| 2026-05-04 22:35 | 37.73393 | 31.07930 | 37984 ft | 516 kts | 128° |
| 2026-05-04 22:36 | 37.69822 | 31.13960 | 37982 ft | 515 kts | 128° |
| 2026-05-04 22:36 | 37.65529 | 31.21197 | 37982 ft | 515 kts | 128° |
| 2026-05-04 22:37 | 37.61234 | 31.28420 | 37973 ft | 514 kts | 128° |
| 2026-05-04 22:37 | 37.56936 | 31.35633 | 37976 ft | 514 kts | 128° |
| 2026-05-04 22:38 | 37.52638 | 31.42829 | 37971 ft | 514 kts | 128° |
| 2026-05-04 22:38 | 37.48340 | 31.50010 | 37972 ft | 513 kts | 129° |
| 2026-05-04 22:39 | 37.44036 | 31.57186 | 37972 ft | 513 kts | 129° |
| 2026-05-04 22:39 | 37.39731 | 31.64347 | 37976 ft | 513 kts | 129° |
| 2026-05-04 22:40 | 37.35428 | 31.71495 | 37977 ft | 513 kts | 129° |
| 2026-05-04 22:40 | 37.31118 | 31.78628 | 37976 ft | 512 kts | 129° |
| 2026-05-04 22:41 | 37.26800 | 31.85744 | 37977 ft | 512 kts | 129° |
| 2026-05-04 22:41 | 37.22481 | 31.92850 | 37976 ft | 512 kts | 129° |
| 2026-05-04 22:42 | 37.18158 | 31.99951 | 37972 ft | 512 kts | 130° |
| 2026-05-04 22:42 | 37.13835 | 32.07040 | 37968 ft | 512 kts | 130° |
| 2026-05-04 22:43 | 37.09505 | 32.14124 | 37970 ft | 512 kts | 130° |
| 2026-05-04 22:43 | 37.05171 | 32.21199 | 37974 ft | 512 kts | 130° |
| 2026-05-04 22:44 | 37.00829 | 32.28272 | 37969 ft | 512 kts | 130° |
| 2026-05-04 22:44 | 36.96486 | 32.35332 | 37964 ft | 512 kts | 130° |
| 2026-05-04 22:45 | 36.92138 | 32.42385 | 37968 ft | 513 kts | 130° |
| 2026-05-04 22:45 | 36.85597 | 32.52982 | 37969 ft | 514 kts | 131° |
| 2026-05-04 22:46 | 36.81228 | 32.60038 | 37966 ft | 514 kts | 131° |
| 2026-05-04 22:46 | 36.76847 | 32.67096 | 37966 ft | 514 kts | 131° |
| 2026-05-04 22:47 | 36.72461 | 32.74149 | 37963 ft | 514 kts | 131° |
| 2026-05-04 22:47 | 36.68079 | 32.81186 | 37962 ft | 514 kts | 131° |
| 2026-05-04 22:48 | 36.63689 | 32.88221 | 37953 ft | 514 kts | 131° |
| 2026-05-04 22:48 | 36.59324 | 32.95199 | 37949 ft | 514 kts | 131° |
| 2026-05-04 22:49 | 36.54933 | 33.02206 | 37940 ft | 514 kts | 132° |
| 2026-05-04 22:49 | 36.50538 | 33.09204 | 37931 ft | 513 kts | 132° |
| 2026-05-04 22:50 | 36.46142 | 33.16189 | 37922 ft | 513 kts | 132° |
| 2026-05-04 22:50 | 36.41742 | 33.23163 | 37917 ft | 513 kts | 133° |
| 2026-05-04 22:51 | 36.37343 | 33.30125 | 37911 ft | 513 kts | 133° |
| 2026-05-04 22:51 | 36.32930 | 33.37086 | 37907 ft | 513 kts | 133° |
| 2026-05-04 22:52 | 36.28503 | 33.44042 | 37900 ft | 514 kts | 133° |
| 2026-05-04 22:52 | 36.24074 | 33.50990 | 37894 ft | 514 kts | 133° |
| 2026-05-04 22:53 | 36.19639 | 33.57936 | 37890 ft | 515 kts | 133° |
| 2026-05-04 22:53 | 36.15192 | 33.64888 | 37886 ft | 515 kts | 133° |
| 2026-05-04 22:54 | 36.10736 | 33.71840 | 37881 ft | 516 kts | 133° |
| 2026-05-04 22:54 | 36.06275 | 33.78787 | 37877 ft | 516 kts | 134° |
| 2026-05-04 22:55 | 36.01810 | 33.85726 | 37878 ft | 515 kts | 134° |
| 2026-05-04 22:55 | 35.97349 | 33.92646 | 37883 ft | 514 kts | 134° |
| 2026-05-04 22:56 | 35.92908 | 33.99556 | 37877 ft | 515 kts | 132° |
| 2026-05-04 22:56 | 35.89206 | 34.07199 | 37884 ft | 521 kts | 123° |
| 2026-05-04 22:57 | 35.85879 | 34.15146 | 37881 ft | 522 kts | 122° |
| 2026-05-04 22:57 | 35.82622 | 34.23068 | 37882 ft | 521 kts | 122° |
| 2026-05-04 22:58 | 35.79329 | 34.31017 | 37878 ft | 521 kts | 123° |
| 2026-05-04 22:58 | 35.76018 | 34.38946 | 37881 ft | 520 kts | 123° |
| 2026-05-04 22:59 | 35.72697 | 34.46866 | 37880 ft | 520 kts | 123° |
| 2026-05-04 22:59 | 35.69375 | 34.54768 | 37881 ft | 520 kts | 123° |
| 2026-05-04 23:00 | 35.66046 | 34.62673 | 37878 ft | 520 kts | 124° |
| 2026-05-04 23:00 | 35.62715 | 34.70564 | 37878 ft | 520 kts | 124° |
| 2026-05-04 23:01 | 35.59382 | 34.78440 | 37880 ft | 520 kts | 124° |
| 2026-05-04 23:01 | 35.56044 | 34.86313 | 37890 ft | 519 kts | 124° |
| 2026-05-04 23:02 | 35.52700 | 34.94177 | 37881 ft | 519 kts | 124° |
| 2026-05-04 23:02 | 35.49356 | 35.02024 | 37879 ft | 519 kts | 124° |
| 2026-05-04 23:03 | 35.46011 | 35.09856 | 37878 ft | 518 kts | 124° |
| 2026-05-04 23:03 | 35.42662 | 35.17676 | 37877 ft | 518 kts | 125° |
| 2026-05-04 23:04 | 35.39306 | 35.25495 | 37882 ft | 518 kts | 125° |
| 2026-05-04 23:04 | 35.35953 | 35.33292 | 37892 ft | 517 kts | 125° |
| 2026-05-04 23:05 | 35.32599 | 35.41070 | 37887 ft | 516 kts | 125° |
| 2026-05-04 23:05 | 35.29242 | 35.48840 | 37893 ft | 516 kts | 125° |
| 2026-05-04 23:06 | 35.25884 | 35.56593 | 37897 ft | 515 kts | 125° |
| 2026-05-04 23:06 | 35.22544 | 35.64354 | 37894 ft | 518 kts | 122° |
| 2026-05-04 23:07 | 35.20396 | 35.72874 | 37902 ft | 536 kts | 103° |
| 2026-05-04 23:07 | 35.20244 | 35.77451 | 37907 ft | 544 kts | 91° |
| 2026-05-04 23:07 | 35.20661 | 35.82072 | 37908 ft | 548 kts | 86° |
| 2026-05-04 23:08 | 35.20992 | 35.91268 | 37911 ft | 535 kts | 103° |
| 2026-05-04 23:08 | 35.20249 | 35.95664 | 37913 ft | 523 kts | 114° |
| 2026-05-04 23:08 | 35.18892 | 35.99731 | 37917 ft | 511 kts | 125° |
| 2026-05-04 23:09 | 35.17029 | 36.03303 | 37925 ft | 500 kts | 136° |
| 2026-05-04 23:09 | 35.14821 | 36.06548 | 37917 ft | 495 kts | 139° |
| 2026-05-04 23:09 | 35.10126 | 36.12674 | 37920 ft | 494 kts | 142° |
| 2026-05-04 23:10 | 35.05354 | 36.18716 | 37922 ft | 495 kts | 141° |
| 2026-05-04 23:10 | 35.00611 | 36.24811 | 37923 ft | 495 kts | 141° |
| 2026-05-04 23:11 | 34.95894 | 36.30934 | 37924 ft | 496 kts | 141° |
| 2026-05-04 23:11 | 34.91173 | 36.37064 | 37926 ft | 496 kts | 141° |
| 2026-05-04 23:12 | 34.86440 | 36.43195 | 37926 ft | 497 kts | 141° |
| 2026-05-04 23:12 | 34.81703 | 36.49319 | 37930 ft | 497 kts | 141° |
| 2026-05-04 23:13 | 34.76954 | 36.55447 | 37932 ft | 498 kts | 142° |
| 2026-05-04 23:13 | 34.72200 | 36.61571 | 37932 ft | 499 kts | 142° |
| 2026-05-04 23:14 | 34.67431 | 36.67709 | 37941 ft | 499 kts | 142° |
| 2026-05-04 23:14 | 34.62656 | 36.73840 | 37946 ft | 500 kts | 142° |
| 2026-05-04 23:15 | 34.57869 | 36.79965 | 37938 ft | 500 kts | 142° |
| 2026-05-04 23:15 | 34.53082 | 36.86084 | 37937 ft | 500 kts | 142° |
| 2026-05-04 23:16 | 34.48291 | 36.92199 | 37939 ft | 500 kts | 142° |
| 2026-05-04 23:16 | 34.43501 | 36.98304 | 37943 ft | 499 kts | 142° |
| 2026-05-04 23:17 | 34.38747 | 37.04350 | 37940 ft | 499 kts | 143° |
| 2026-05-04 23:17 | 34.33965 | 37.10423 | 37944 ft | 498 kts | 143° |
| 2026-05-04 23:18 | 34.29181 | 37.16486 | 37943 ft | 498 kts | 143° |
| 2026-05-04 23:18 | 34.24388 | 37.22544 | 37949 ft | 498 kts | 143° |
| 2026-05-04 23:19 | 34.19107 | 37.27630 | 37951 ft | 475 kts | 160° |
| 2026-05-04 23:19 | 34.13299 | 37.31327 | 37955 ft | 470 kts | 163° |
| 2026-05-04 23:20 | 34.07430 | 37.34791 | 37949 ft | 470 kts | 164° |
| 2026-05-04 23:20 | 34.01554 | 37.38242 | 37968 ft | 470 kts | 164° |
| 2026-05-04 23:21 | 33.95680 | 37.41721 | 37968 ft | 471 kts | 164° |
| 2026-05-04 23:21 | 33.89809 | 37.45211 | 37974 ft | 471 kts | 164° |
| 2026-05-04 23:22 | 33.83930 | 37.48702 | 37970 ft | 471 kts | 164° |
| 2026-05-04 23:22 | 33.78048 | 37.52189 | 37974 ft | 471 kts | 164° |
| 2026-05-04 23:23 | 33.73153 | 37.55085 | 37974 ft | 472 kts | 164° |
| 2026-05-04 23:23 | 33.67259 | 37.58568 | 37977 ft | 473 kts | 165° |
| 2026-05-04 23:24 | 33.61356 | 37.62050 | 37978 ft | 473 kts | 165° |
| 2026-05-04 23:24 | 33.55446 | 37.65532 | 37983 ft | 474 kts | 165° |
| 2026-05-04 23:25 | 33.49520 | 37.68976 | 37984 ft | 473 kts | 165° |
| 2026-05-04 23:25 | 33.43577 | 37.72372 | 37987 ft | 473 kts | 165° |
| 2026-05-04 23:26 | 33.37627 | 37.75764 | 37987 ft | 473 kts | 165° |
| 2026-05-04 23:26 | 33.31673 | 37.79145 | 37990 ft | 474 kts | 165° |
| 2026-05-04 23:27 | 33.25717 | 37.82528 | 37991 ft | 474 kts | 165° |
| 2026-05-04 23:27 | 33.19765 | 37.85907 | 38001 ft | 474 kts | 166° |
| 2026-05-04 23:28 | 33.13810 | 37.89284 | 38005 ft | 474 kts | 166° |
| 2026-05-04 23:28 | 33.07846 | 37.92661 | 38005 ft | 474 kts | 166° |
| 2026-05-04 23:29 | 33.01891 | 37.96027 | 37997 ft | 474 kts | 166° |
| 2026-05-04 23:29 | 32.95933 | 37.99390 | 38004 ft | 474 kts | 166° |
| 2026-05-04 23:30 | 32.89993 | 38.02806 | 38004 ft | 475 kts | 165° |
| 2026-05-04 23:30 | 32.84121 | 38.06320 | 38007 ft | 476 kts | 164° |
| 2026-05-04 23:31 | 32.78207 | 38.09870 | 38007 ft | 476 kts | 165° |
| 2026-05-04 23:31 | 32.72295 | 38.13395 | 38017 ft | 476 kts | 165° |
| 2026-05-04 23:32 | 32.66373 | 38.16906 | 38012 ft | 476 kts | 165° |
| 2026-05-04 23:32 | 32.60454 | 38.20409 | 38025 ft | 475 kts | 165° |
| 2026-05-04 23:33 | 32.54536 | 38.23905 | 38020 ft | 475 kts | 165° |
| 2026-05-04 23:33 | 32.48617 | 38.27398 | 38027 ft | 475 kts | 165° |
| 2026-05-04 23:34 | 32.42691 | 38.30890 | 38025 ft | 476 kts | 165° |
| 2026-05-04 23:34 | 32.36767 | 38.34376 | 38033 ft | 476 kts | 165° |
| 2026-05-04 23:35 | 32.30839 | 38.37859 | 38026 ft | 476 kts | 165° |
| 2026-05-04 23:35 | 32.24911 | 38.41337 | 38032 ft | 476 kts | 165° |
| 2026-05-04 23:36 | 32.19023 | 38.44786 | 38031 ft | 476 kts | 165° |
| 2026-05-04 23:36 | 32.13094 | 38.48255 | 38037 ft | 476 kts | 165° |
| 2026-05-04 23:37 | 32.07166 | 38.51717 | 38033 ft | 476 kts | 165° |
| 2026-05-04 23:37 | 32.01230 | 38.55177 | 38071 ft | 478 kts | 165° |
| 2026-05-04 23:38 | 31.95227 | 38.58664 | 38035 ft | 483 kts | 165° |
| 2026-05-04 23:38 | 31.89204 | 38.62171 | 38030 ft | 483 kts | 165° |
| 2026-05-04 23:39 | 31.83178 | 38.65681 | 38020 ft | 483 kts | 165° |
| 2026-05-04 23:39 | 31.77155 | 38.69182 | 38019 ft | 483 kts | 165° |
| 2026-05-04 23:40 | 31.71129 | 38.72679 | 38017 ft | 484 kts | 165° |
| 2026-05-04 23:40 | 31.65239 | 38.76671 | 38016 ft | 491 kts | 160° |
| 2026-05-04 23:41 | 31.59403 | 38.80854 | 38019 ft | 492 kts | 159° |
| 2026-05-04 23:41 | 31.53578 | 38.85057 | 38026 ft | 492 kts | 159° |
| 2026-05-04 23:42 | 31.47750 | 38.89245 | 38034 ft | 491 kts | 160° |
| 2026-05-04 23:42 | 31.41915 | 38.93421 | 38047 ft | 491 kts | 160° |
| 2026-05-04 23:43 | 31.36082 | 38.97586 | 38053 ft | 491 kts | 160° |
| 2026-05-04 23:43 | 31.30252 | 39.01743 | 38049 ft | 491 kts | 160° |
| 2026-05-04 23:44 | 31.24406 | 39.05905 | 38054 ft | 491 kts | 160° |
| 2026-05-04 23:44 | 31.18566 | 39.10058 | 38053 ft | 492 kts | 160° |
| 2026-05-04 23:45 | 31.12720 | 39.14210 | 38049 ft | 492 kts | 160° |
| 2026-05-04 23:45 | 31.06873 | 39.18356 | 38056 ft | 492 kts | 160° |
| 2026-05-04 23:46 | 31.01024 | 39.22504 | 38054 ft | 492 kts | 160° |
| 2026-05-04 23:46 | 30.95171 | 39.26642 | 38057 ft | 492 kts | 160° |
| 2026-05-04 23:47 | 30.89309 | 39.30777 | 38061 ft | 492 kts | 160° |
| 2026-05-04 23:47 | 30.83449 | 39.34907 | 38059 ft | 493 kts | 160° |
| 2026-05-04 23:48 | 30.77621 | 39.39009 | 38061 ft | 493 kts | 160° |
| 2026-05-04 23:48 | 30.71756 | 39.43132 | 38060 ft | 493 kts | 160° |
| 2026-05-04 23:49 | 30.65889 | 39.47251 | 38061 ft | 493 kts | 160° |
| 2026-05-04 23:49 | 30.60020 | 39.51365 | 38069 ft | 493 kts | 160° |
| 2026-05-04 23:50 | 30.54157 | 39.55469 | 38063 ft | 492 kts | 160° |
| 2026-05-04 23:50 | 30.48291 | 39.59569 | 38066 ft | 492 kts | 160° |
| 2026-05-04 23:51 | 30.42519 | 39.63925 | 38066 ft | 506 kts | 152° |
| 2026-05-04 23:51 | 30.39919 | 39.66767 | 38070 ft | 521 kts | 142° |
| 2026-05-04 23:51 | 30.37597 | 39.70030 | 38064 ft | 528 kts | 138° |
| 2026-05-04 23:52 | 30.33177 | 39.76859 | 38067 ft | 532 kts | 136° |
| 2026-05-04 23:52 | 30.28817 | 39.83772 | 38065 ft | 532 kts | 136° |
| 2026-05-04 23:53 | 30.24422 | 39.90658 | 38061 ft | 531 kts | 137° |
| 2026-05-04 23:53 | 30.20007 | 39.97502 | 38060 ft | 531 kts | 137° |
| 2026-05-04 23:54 | 30.15587 | 40.04327 | 38058 ft | 531 kts | 137° |
| 2026-05-04 23:54 | 30.11159 | 40.11151 | 38062 ft | 531 kts | 137° |
| 2026-05-04 23:55 | 30.06757 | 40.17931 | 38061 ft | 531 kts | 137° |
| 2026-05-04 23:56 | 30.00114 | 40.28142 | 38060 ft | 530 kts | 137° |
| 2026-05-04 23:56 | 29.95687 | 40.34943 | 38058 ft | 530 kts | 137° |
| 2026-05-04 23:57 | 29.91251 | 40.41734 | 38059 ft | 530 kts | 138° |
| 2026-05-04 23:57 | 29.86811 | 40.48518 | 38058 ft | 530 kts | 138° |
| 2026-05-04 23:58 | 29.82371 | 40.55296 | 38052 ft | 530 kts | 138° |
| 2026-05-04 23:58 | 29.77927 | 40.62073 | 38049 ft | 531 kts | 138° |
| 2026-05-04 23:59 | 29.73821 | 40.69252 | 38041 ft | 539 kts | 132° |
| 2026-05-04 23:59 | 29.69859 | 40.76598 | 38035 ft | 540 kts | 132° |
| 2026-05-05 00:00 | 29.65917 | 40.83953 | 38033 ft | 540 kts | 132° |
| 2026-05-05 00:00 | 29.61959 | 40.91304 | 38027 ft | 540 kts | 132° |
| 2026-05-05 00:01 | 29.57992 | 40.98638 | 38024 ft | 540 kts | 132° |
| 2026-05-05 00:01 | 29.54018 | 41.05968 | 38017 ft | 540 kts | 132° |
| 2026-05-05 00:02 | 29.50045 | 41.13283 | 38019 ft | 540 kts | 132° |
| 2026-05-05 00:02 | 29.46063 | 41.20601 | 38021 ft | 540 kts | 132° |
| 2026-05-05 00:03 | 29.42087 | 41.27897 | 38006 ft | 539 kts | 132° |
| 2026-05-05 00:03 | 29.38109 | 41.35185 | 38004 ft | 539 kts | 132° |
| 2026-05-05 00:04 | 29.34129 | 41.42473 | 37999 ft | 539 kts | 132° |
| 2026-05-05 00:04 | 29.30150 | 41.49737 | 38000 ft | 538 kts | 132° |
| 2026-05-05 00:05 | 29.26166 | 41.56991 | 37991 ft | 538 kts | 132° |
| 2026-05-05 00:05 | 29.22183 | 41.64236 | 37985 ft | 538 kts | 132° |
| 2026-05-05 00:06 | 29.18196 | 41.71480 | 37978 ft | 538 kts | 132° |
| 2026-05-05 00:06 | 29.14207 | 41.78712 | 37976 ft | 538 kts | 132° |
| 2026-05-05 00:07 | 29.10211 | 41.85946 | 37974 ft | 538 kts | 132° |
| 2026-05-05 00:07 | 29.06208 | 41.93180 | 37967 ft | 538 kts | 132° |
| 2026-05-05 00:08 | 29.02197 | 42.00414 | 37962 ft | 540 kts | 132° |
| 2026-05-05 00:08 | 28.98166 | 42.07664 | 37955 ft | 541 kts | 132° |
| 2026-05-05 00:09 | 28.94121 | 42.14927 | 37951 ft | 543 kts | 132° |
| 2026-05-05 00:09 | 28.90065 | 42.22202 | 37940 ft | 543 kts | 132° |
| 2026-05-05 00:10 | 28.86007 | 42.29470 | 37940 ft | 543 kts | 132° |
| 2026-05-05 00:10 | 28.82632 | 42.35504 | 37930 ft | 543 kts | 132° |
| 2026-05-05 00:11 | 28.77906 | 42.43939 | 37927 ft | 542 kts | 132° |
| 2026-05-05 00:11 | 28.74500 | 42.50007 | 37919 ft | 542 kts | 132° |
| 2026-05-05 00:12 | 28.70440 | 42.57227 | 37915 ft | 541 kts | 132° |
| 2026-05-05 00:12 | 28.66408 | 42.64386 | 37912 ft | 540 kts | 132° |
| 2026-05-05 00:13 | 28.61854 | 42.71085 | 37904 ft | 526 kts | 142° |
| 2026-05-05 00:13 | 28.56970 | 42.77174 | 37902 ft | 524 kts | 143° |
| 2026-05-05 00:14 | 28.51991 | 42.83236 | 37896 ft | 524 kts | 143° |
| 2026-05-05 00:14 | 28.47019 | 42.89292 | 37894 ft | 524 kts | 143° |
| 2026-05-05 00:15 | 28.42052 | 42.95361 | 37891 ft | 524 kts | 143° |
| 2026-05-05 00:15 | 28.37092 | 43.01423 | 37886 ft | 524 kts | 143° |
| 2026-05-05 00:16 | 28.32127 | 43.07483 | 37885 ft | 524 kts | 143° |
| 2026-05-05 00:16 | 28.27163 | 43.13530 | 37882 ft | 523 kts | 143° |
| 2026-05-05 00:17 | 28.22202 | 43.19564 | 37876 ft | 523 kts | 143° |
| 2026-05-05 00:17 | 28.17236 | 43.25595 | 37876 ft | 523 kts | 143° |
| 2026-05-05 00:18 | 28.12273 | 43.31615 | 37885 ft | 523 kts | 143° |
| 2026-05-05 00:18 | 28.07307 | 43.37628 | 37878 ft | 522 kts | 143° |
| 2026-05-05 00:19 | 28.02346 | 43.43629 | 37870 ft | 522 kts | 143° |
| 2026-05-05 00:19 | 27.97382 | 43.49623 | 37867 ft | 522 kts | 143° |
| 2026-05-05 00:20 | 27.92421 | 43.55604 | 37871 ft | 522 kts | 143° |
| 2026-05-05 00:20 | 27.87452 | 43.61585 | 37871 ft | 522 kts | 143° |
| 2026-05-05 00:21 | 27.82468 | 43.67538 | 37869 ft | 520 kts | 144° |
| 2026-05-05 00:21 | 27.77296 | 43.73186 | 37872 ft | 516 kts | 147° |
| 2026-05-05 00:22 | 27.72100 | 43.78701 | 37870 ft | 516 kts | 147° |
| 2026-05-05 00:22 | 27.66853 | 43.84335 | 37872 ft | 517 kts | 146° |
| 2026-05-05 00:23 | 27.61663 | 43.89956 | 37871 ft | 518 kts | 146° |
| 2026-05-05 00:23 | 27.56505 | 43.95551 | 37873 ft | 518 kts | 146° |
| 2026-05-05 00:24 | 27.51308 | 44.01177 | 37872 ft | 518 kts | 146° |
| 2026-05-05 00:24 | 27.46105 | 44.06799 | 37872 ft | 519 kts | 146° |
| 2026-05-05 00:25 | 27.40894 | 44.12420 | 37871 ft | 519 kts | 146° |
| 2026-05-05 00:25 | 27.35678 | 44.18040 | 37874 ft | 519 kts | 146° |
| 2026-05-05 00:26 | 27.30463 | 44.23652 | 37872 ft | 519 kts | 146° |
| 2026-05-05 00:26 | 27.25247 | 44.29257 | 37871 ft | 519 kts | 146° |
| 2026-05-05 00:27 | 27.20030 | 44.34855 | 37879 ft | 519 kts | 146° |
| 2026-05-05 00:27 | 27.14813 | 44.40451 | 37854 ft | 519 kts | 146° |
| 2026-05-05 00:28 | 27.09597 | 44.46045 | 37869 ft | 518 kts | 146° |
| 2026-05-05 00:28 | 27.04383 | 44.51627 | 37865 ft | 518 kts | 146° |
| 2026-05-05 00:29 | 26.99167 | 44.57204 | 37866 ft | 518 kts | 146° |
| 2026-05-05 00:29 | 26.93960 | 44.62762 | 37866 ft | 517 kts | 146° |
| 2026-05-05 00:30 | 26.88744 | 44.68313 | 37868 ft | 517 kts | 146° |
| 2026-05-05 00:30 | 26.83529 | 44.73857 | 37870 ft | 517 kts | 146° |
| 2026-05-05 00:31 | 26.78315 | 44.79395 | 37860 ft | 516 kts | 146° |
| 2026-05-05 00:31 | 26.73110 | 44.84922 | 37871 ft | 516 kts | 146° |
| 2026-05-05 00:32 | 26.67900 | 44.90427 | 37863 ft | 515 kts | 146° |
| 2026-05-05 00:32 | 26.62690 | 44.95922 | 37863 ft | 515 kts | 146° |
| 2026-05-05 00:33 | 26.57484 | 45.01412 | 37873 ft | 514 kts | 146° |
| 2026-05-05 00:33 | 26.52288 | 45.06889 | 37872 ft | 514 kts | 146° |
| 2026-05-05 00:34 | 26.47087 | 45.12360 | 37872 ft | 513 kts | 146° |
| 2026-05-05 00:34 | 26.41925 | 45.17784 | 37870 ft | 513 kts | 146° |
| 2026-05-05 00:35 | 26.36698 | 45.23270 | 37872 ft | 512 kts | 146° |
| 2026-05-05 00:35 | 26.31538 | 45.28678 | 37870 ft | 512 kts | 146° |
| 2026-05-05 00:36 | 26.26358 | 45.34111 | 37865 ft | 512 kts | 146° |
| 2026-05-05 00:36 | 26.21176 | 45.39555 | 37863 ft | 512 kts | 146° |
| 2026-05-05 00:37 | 26.15994 | 45.44995 | 37868 ft | 512 kts | 146° |
| 2026-05-05 00:37 | 26.10811 | 45.50432 | 37866 ft | 512 kts | 146° |
| 2026-05-05 00:38 | 26.05625 | 45.55854 | 37867 ft | 512 kts | 146° |
| 2026-05-05 00:38 | 26.00428 | 45.61282 | 37865 ft | 512 kts | 146° |
| 2026-05-05 00:39 | 25.95230 | 45.66707 | 37868 ft | 513 kts | 145° |
| 2026-05-05 00:39 | 25.90029 | 45.72128 | 37868 ft | 513 kts | 145° |
| 2026-05-05 00:40 | 25.84827 | 45.77550 | 37875 ft | 513 kts | 145° |
| 2026-05-05 00:40 | 25.79627 | 45.82958 | 37869 ft | 513 kts | 145° |
| 2026-05-05 00:41 | 25.74413 | 45.88366 | 37874 ft | 512 kts | 145° |
| 2026-05-05 00:41 | 25.69208 | 45.93759 | 37871 ft | 512 kts | 145° |
| 2026-05-05 00:42 | 25.64001 | 45.99151 | 37870 ft | 512 kts | 145° |
| 2026-05-05 00:42 | 25.58799 | 46.04539 | 37875 ft | 512 kts | 145° |
| 2026-05-05 00:43 | 25.53589 | 46.09919 | 37873 ft | 512 kts | 145° |
| 2026-05-05 00:43 | 25.48378 | 46.15290 | 37873 ft | 512 kts | 145° |
| 2026-05-05 00:44 | 25.43163 | 46.20660 | 37875 ft | 512 kts | 144° |
| 2026-05-05 00:44 | 25.37939 | 46.26035 | 37886 ft | 513 kts | 144° |
| 2026-05-05 00:45 | 25.32710 | 46.31409 | 37889 ft | 513 kts | 144° |
| 2026-05-05 00:45 | 25.27475 | 46.36783 | 37879 ft | 514 kts | 144° |
| 2026-05-05 00:46 | 25.22232 | 46.42159 | 37891 ft | 515 kts | 144° |
| 2026-05-05 00:46 | 25.16978 | 46.47538 | 37895 ft | 515 kts | 144° |
| 2026-05-05 00:47 | 25.11723 | 46.52912 | 37910 ft | 516 kts | 144° |
| 2026-05-05 00:47 | 25.06488 | 46.58333 | 37902 ft | 520 kts | 141° |
| 2026-05-05 00:48 | 25.02275 | 46.64939 | 37907 ft | 538 kts | 120° |
| 2026-05-05 00:48 | 25.00982 | 46.68839 | 37910 ft | 546 kts | 108° |
| 2026-05-05 00:48 | 25.00372 | 46.72989 | 37913 ft | 553 kts | 96° |
| 2026-05-05 00:48 | 25.00495 | 46.77231 | 37912 ft | 557 kts | 83° |
| 2026-05-05 00:49 | 25.01356 | 46.81389 | 37910 ft | 558 kts | 71° |
| 2026-05-05 00:49 | 25.02921 | 46.85294 | 37910 ft | 557 kts | 59° |
| 2026-05-05 00:49 | 25.05116 | 46.88788 | 37909 ft | 553 kts | 46° |
| 2026-05-05 00:50 | 25.09703 | 46.95531 | 37900 ft | 558 kts | 60° |
| 2026-05-05 00:50 | 25.13204 | 47.03176 | 37895 ft | 559 kts | 64° |
| 2026-05-05 00:51 | 25.16478 | 47.11016 | 37894 ft | 559 kts | 65° |
| 2026-05-05 00:51 | 25.19675 | 47.18836 | 37895 ft | 559 kts | 65° |
| 2026-05-05 00:52 | 25.22866 | 47.26612 | 37885 ft | 559 kts | 64° |
| 2026-05-05 00:52 | 25.26109 | 47.34483 | 37879 ft | 560 kts | 64° |
| 2026-05-05 00:53 | 25.29312 | 47.42259 | 37885 ft | 560 kts | 64° |
| 2026-05-05 00:53 | 25.32535 | 47.50098 | 37881 ft | 560 kts | 64° |
| 2026-05-05 00:54 | 25.35753 | 47.57941 | 37872 ft | 561 kts | 64° |
| 2026-05-05 00:54 | 25.38972 | 47.65804 | 37875 ft | 561 kts | 64° |
| 2026-05-05 00:55 | 25.42189 | 47.73684 | 37873 ft | 562 kts | 64° |
| 2026-05-05 00:55 | 25.45401 | 47.81569 | 37853 ft | 563 kts | 64° |
| 2026-05-05 00:56 | 25.48612 | 47.89461 | 37851 ft | 563 kts | 64° |
| 2026-05-05 00:56 | 25.51824 | 47.97371 | 37850 ft | 563 kts | 64° |
| 2026-05-05 00:57 | 25.54518 | 48.04003 | 37843 ft | 564 kts | 64° |
| 2026-05-05 00:57 | 25.57727 | 48.11928 | 37841 ft | 564 kts | 64° |
| 2026-05-05 00:58 | 25.60933 | 48.19863 | 37837 ft | 564 kts | 64° |
| 2026-05-05 00:58 | 25.64135 | 48.27799 | 37829 ft | 565 kts | 64° |
| 2026-05-05 00:59 | 25.67173 | 48.35834 | 37825 ft | 566 kts | 72° |
| 2026-05-05 00:59 | 25.68019 | 48.40033 | 37823 ft | 565 kts | 84° |
| 2026-05-05 00:59 | 25.68195 | 48.44427 | 37827 ft | 562 kts | 94° |
| 2026-05-05 01:00 | 25.67783 | 48.53072 | 37813 ft | 562 kts | 97° |
| 2026-05-05 01:00 | 25.67168 | 48.61653 | 37811 ft | 562 kts | 97° |
| 2026-05-05 01:01 | 25.66558 | 48.70290 | 37803 ft | 563 kts | 97° |
| 2026-05-05 01:01 | 25.65982 | 48.78938 | 37799 ft | 563 kts | 97° |
| 2026-05-05 01:02 | 25.65417 | 48.87589 | 37797 ft | 563 kts | 97° |
| 2026-05-05 01:02 | 25.64847 | 48.96235 | 37794 ft | 563 kts | 97° |
| 2026-05-05 01:03 | 25.64268 | 49.04892 | 37788 ft | 563 kts | 97° |
| 2026-05-05 01:03 | 25.63685 | 49.13532 | 37785 ft | 563 kts | 97° |
| 2026-05-05 01:04 | 25.63097 | 49.22179 | 37781 ft | 562 kts | 97° |
| 2026-05-05 01:04 | 25.62715 | 49.27742 | 37786 ft | 562 kts | 97° |